Estación Meteorológica Peña el Pijo (Robertgarden) [ 02/03/23 04:00:23 CET ]

Fecha Hora Presion(HPa) Temp (°C) Humedad % Rocio (°C) Viento ( m/s) Direccion Lluvia 1Hora(mm) Lluvia 24H(mm) LLuvia Total(mm)
2012-Dec-01 01:01:13 994.800 0.2 81 -2.7         178.19
2012-Dec-01 02:01:46 994.400 0.4 81 -2.5         178.19
2012-Dec-01 03:04:21 994.700 0.4 81 -2.5         178.19
2012-Dec-01 04:01:12 994.700 -0.1 81 -2.9         178.19
2012-Dec-01 05:01:13 994.600 -1.6 84 -4.0         178.19
2012-Dec-01 06:01:12 995.200 -1.9 87 -3.8         178.19
2012-Dec-01 07:01:13 995.600 -1.6 87 -3.5         178.19
2012-Dec-01 08:01:17 996.100 -1.1 88 -2.8         178.19
2012-Dec-01 09:01:18 996.900 -0.4 88 -2.1         178.19
2012-Dec-01 10:01:16 997.400 0.8 84 -1.6         178.19
2012-Dec-01 11:01:14 998.300 1.5 81 -1.4         178.19
2012-Dec-01 12:01:14 998.400 4.6 68 -0.8         178.19
2012-Dec-01 13:01:17 998.200 5.1 62 -1.6         178.19
2012-Dec-01 14:01:14 998.300 4.2 62 -2.5         178.19
2012-Dec-01 15:01:23 998.300 4.4 63 -2.1         178.19
2012-Dec-01 16:01:12 998.900 3.6 65 -2.4         178.19
2012-Dec-01 17:01:13 999.400 3.9 65 -2.1         178.19
2012-Dec-01 18:01:14 1000.300 2.2 70 -2.7         178.19
2012-Dec-01 19:01:17 1001.300 2.4 70 -2.5         178.19
2012-Dec-01 20:01:18 1002.300 1.8 69 -3.3         178.19
2012-Dec-01 21:01:15 1003.200 -0.8 75 -4.7         178.19
2012-Dec-01 22:01:12 1003.800 -1.9 80 -4.9         178.19
2012-Dec-01 23:01:14 1004.300 -2.6 82 -5.3         178.19

Temperatura Máxima:    Temperatura Mínima:-2°
Presión Máxima:1004.300 Hpa    Presión Mínima:994.400 Hpa


Volver